TimeCDT,TemperatureF,Dew PointF,Humidity,Sea Level PressureIn,VisibilityMPH,Wind Direction,Wind SpeedMPH,Gust SpeedMPH,PrecipitationIn,Events,Conditions,WindDirDegrees,DateUTC
12:53 AM,61.0,53.1,75,30.24,10.0,ESE,3.5,-,N/A,,Clear,120,2013-04-27 05:53:00
1:53 AM,62.1,53.1,72,30.23,10.0,Calm,Calm,-,N/A,,Clear,0,2013-04-27 06:53:00
2:53 AM,59.0,53.1,81,30.22,10.0,Calm,Calm,-,N/A,,Clear,0,2013-04-27 07:53:00
3:53 AM,62.1,55.9,80,30.21,10.0,ESE,3.5,-,N/A,,Clear,110,2013-04-27 08:53:00
4:53 AM,64.0,57.0,78,30.21,10.0,East,3.5,-,N/A,,Mostly Cloudy,100,2013-04-27 09:53:00
5:53 AM,62.1,57.0,84,30.22,10.0,East,5.8,-,N/A,,Mostly Cloudy,80,2013-04-27 10:53:00
6:53 AM,63.0,57.0,81,30.23,10.0,East,4.6,-,N/A,,Partly Cloudy,80,2013-04-27 11:53:00
7:53 AM,66.0,57.0,73,30.24,10.0,East,6.9,-,N/A,,Clear,100,2013-04-27 12:53:00
8:53 AM,71.1,59.0,66,30.23,10.0,East,8.1,-,N/A,,Clear,100,2013-04-27 13:53:00
9:53 AM,75.9,61.0,60,30.23,10.0,SSE,11.5,-,N/A,,Mostly Cloudy,150,2013-04-27 14:53:00
10:53 AM,78.1,61.0,56,30.23,10.0,Variable,6.9,17.3,N/A,,Partly Cloudy,0,2013-04-27 15:53:00
2:53 PM,82.9,61.0,47,30.13,10.0,South,10.4,-,N/A,,Partly Cloudy,170,2013-04-27 19:53:00
3:53 PM,82.9,60.1,46,30.10,10.0,South,8.1,-,N/A,,Clear,170,2013-04-27 20:53:00
4:53 PM,82.9,60.1,46,30.10,10.0,South,8.1,-,N/A,,Scattered Clouds,180,2013-04-27 21:53:00
6:53 PM,79.0,61.0,54,30.09,10.0,South,10.4,-,N/A,,Overcast,180,2013-04-27 23:53:00
7:53 PM,75.9,61.0,60,30.10,10.0,South,9.2,-,N/A,,Overcast,190,2013-04-28 00:53:00
8:53 PM,75.0,60.1,60,30.12,10.0,SSW,8.1,-,N/A,,Overcast,200,2013-04-28 01:53:00
9:53 PM,73.0,59.0,61,30.13,10.0,Calm,Calm,-,N/A,,Overcast,0,2013-04-28 02:53:00
10:53 PM,70.0,61.0,73,30.10,10.0,Calm,Calm,-,N/A,,Mostly Cloudy,0,2013-04-28 03:53:00
11:53 PM,66.9,61.0,81,30.09,10.0,Calm,Calm,-,N/A,,Clear,0,2013-04-28 04:53:00